Time;durP1;ratioP1;P1;durP2;ratioP2;P2;SDS_P1;SDS_P2;PMS_P1;PMS_P2;Temp;Humidity;BMP_temperature;BMP_pressure;BME280_temperature;BME280_humidity;BME280_pressure;Samples;Min_cycle;Max_cycle;Signal;HPM_P1;HPM_P2
2022/06/27 00:00:23;;;;;;;2.93;2.30;;;;;;;;;;5045411;28;20655;-66
2022/06/27 00:02:50;;;;;;;2.93;2.30;;;;;;;;;;5066075;28;20222;-66
2022/06/27 00:05:17;;;;;;;4.13;2.47;;;;;;;;;;5065555;28;20193;-65
2022/06/27 00:07:45;;;;;;;3.13;2.30;;;;;;;;;;5066987;28;20197;-66
2022/06/27 00:10:12;;;;;;;3.50;2.20;;;;;;;;;;5062679;28;20210;-65
2022/06/27 00:12:40;;;;;;;3.23;2.50;;;;;;;;;;5058019;28;20719;-66
2022/06/27 00:15:09;;;;;;;2.53;2.33;;;;;;;;;;5067048;28;20242;-66
2022/06/27 00:17:36;;;;;;;3.67;2.30;;;;;;;;;;5066899;28;20540;-65
2022/06/27 00:20:04;;;;;;;3.53;2.40;;;;;;;;;;5070606;28;20939;-65
2022/06/27 00:22:31;;;;;;;2.30;2.10;;;;;;;;;;5061418;28;20229;-65
2022/06/27 00:24:59;;;;;;;2.97;2.47;;;;;;;;;;5067314;28;20194;-65
2022/06/27 00:27:26;;;;;;;4.57;2.60;;;;;;;;;;5062329;28;20195;-65
2022/06/27 00:29:53;;;;;;;6.00;2.30;;;;;;;;;;5068429;28;20240;-65
2022/06/27 00:32:23;;;;;;;2.50;2.20;;;;;;;;;;5048966;28;20190;-65
2022/06/27 00:34:50;;;;;;;2.53;2.33;;;;;;;;;;5063280;28;20210;-65
2022/06/27 00:37:17;;;;;;;11.77;2.63;;;;;;;;;;5066275;28;20197;-65
2022/06/27 00:39:44;;;;;;;3.37;2.40;;;;;;;;;;5070386;28;20198;-66
2022/06/27 00:42:12;;;;;;;2.87;2.50;;;;;;;;;;5066626;28;20221;-65
2022/06/27 00:44:40;;;;;;;3.20;2.50;;;;;;;;;;5062397;28;20201;-65
2022/06/27 00:47:09;;;;;;;3.97;2.97;;;;;;;;;;5060540;28;20210;-66
2022/06/27 00:49:36;;;;;;;2.80;2.53;;;;;;;;;;5065681;28;20623;-66
2022/06/27 00:52:05;;;;;;;2.67;2.00;;;;;;;;;;5066066;28;20194;-66
2022/06/27 00:54:32;;;;;;;2.60;2.37;;;;;;;;;;5059218;28;20798;-66
2022/06/27 00:57:00;;;;;;;2.63;2.43;;;;;;;;;;5063884;28;20228;-66
2022/06/27 00:59:27;;;;;;;3.37;2.43;;;;;;;;;;5065074;28;20572;-67
2022/06/27 01:01:54;;;;;;;3.90;2.50;;;;;;;;;;5062782;28;20206;-66
2022/06/27 01:04:22;;;;;;;2.80;2.33;;;;;;;;;;5066090;28;20688;-66
2022/06/27 01:06:51;;;;;;;4.27;2.50;;;;;;;;;;5044373;28;20206;-66
2022/06/27 01:09:19;;;;;;;3.00;2.30;;;;;;;;;;5068776;28;20262;-66
2022/06/27 01:11:47;;;;;;;3.20;2.70;;;;;;;;;;5064671;28;20193;-66
2022/06/27 01:14:14;;;;;;;2.90;2.40;;;;;;;;;;5069635;28;20240;-66
2022/06/27 01:16:42;;;;;;;3.27;2.50;;;;;;;;;;5067699;28;20197;-66
2022/06/27 01:19:10;;;;;;;4.77;2.83;;;;;;;;;;5069074;28;20189;-66
2022/06/27 01:21:47;;;;;;;3.43;2.43;;;;;;;;;;5065307;28;20213;-66
2022/06/27 01:24:14;;;;;;;5.10;2.50;;;;;;;;;;5065903;28;20209;-66
2022/06/27 01:26:43;;;;;;;3.70;2.47;;;;;;;;;;5066876;28;20190;-66
2022/06/27 01:29:10;;;;;;;2.50;2.30;;;;;;;;;;5068084;28;20528;-66
2022/06/27 01:31:39;;;;;;;2.60;2.40;;;;;;;;;;5069923;28;20193;-66
2022/06/27 01:34:07;;;;;;;3.00;2.80;;;;;;;;;;5067395;28;20209;-66
2022/06/27 01:36:43;;;;;;;3.77;2.97;;;;;;;;;;5067473;28;20197;-66
2022/06/27 01:39:12;;;;;;;3.10;2.50;;;;;;;;;;5072882;28;20193;-66
2022/06/27 01:41:40;;;;;;;3.77;2.57;;;;;;;;;;5069901;28;20198;-66
2022/06/27 01:44:08;;;;;;;3.23;2.50;;;;;;;;;;5070045;28;20229;-66
2022/06/27 01:46:42;;;;;;;2.93;2.60;;;;;;;;;;5065710;28;20210;-66
2022/06/27 01:49:10;;;;;;;2.73;2.30;;;;;;;;;;5071277;28;20201;-65
2022/06/27 01:51:37;;;;;;;2.67;2.40;;;;;;;;;;5068392;28;20220;-66
2022/06/27 01:54:07;;;;;;;3.33;2.37;;;;;;;;;;5070153;28;20550;-66
2022/06/27 01:56:34;;;;;;;5.90;2.40;;;;;;;;;;5045393;28;20208;-66
2022/06/27 01:59:02;;;;;;;3.97;2.77;;;;;;;;;;5070523;28;20201;-66
2022/06/27 02:01:29;;;;;;;2.77;2.53;;;;;;;;;;5052538;28;20189;-66
2022/06/27 02:03:59;;;;;;;3.50;2.53;;;;;;;;;;5068536;28;20228;-66
2022/06/27 02:06:27;;;;;;;2.90;2.40;;;;;;;;;;5066153;28;20705;-66
2022/06/27 02:08:56;;;;;;;2.50;2.30;;;;;;;;;;5070827;28;20216;-66
2022/06/27 02:11:23;;;;;;;2.83;2.53;;;;;;;;;;5069166;28;20190;-66
2022/06/27 02:13:50;;;;;;;3.27;2.60;;;;;;;;;;5069251;28;20201;-66
2022/06/27 02:16:19;;;;;;;3.00;2.73;;;;;;;;;;5068762;28;20198;-66
2022/06/27 02:18:47;;;;;;;2.77;2.20;;;;;;;;;;5066675;28;20247;-66
2022/06/27 02:21:19;;;;;;;3.27;2.70;;;;;;;;;;5063299;28;20214;-66
2022/06/27 02:23:47;;;;;;;2.97;2.67;;;;;;;;;;5069638;28;20221;-65
2022/06/27 02:26:14;;;;;;;2.43;2.23;;;;;;;;;;5049823;28;20216;-66
2022/06/27 02:28:42;;;;;;;3.73;2.60;;;;;;;;;;5064170;28;20209;-66
2022/06/27 02:31:10;;;;;;;3.37;2.63;;;;;;;;;;5067973;28;20757;-66
2022/06/27 02:33:39;;;;;;;2.97;2.63;;;;;;;;;;5066043;28;20547;-66
2022/06/27 02:36:07;;;;;;;2.90;2.60;;;;;;;;;;5063815;28;20194;-65
2022/06/27 02:38:35;;;;;;;2.93;2.60;;;;;;;;;;5049219;28;20198;-66
2022/06/27 02:41:06;;;;;;;3.10;2.27;;;;;;;;;;5068356;28;20306;-66
2022/06/27 02:43:34;;;;;;;3.17;2.53;;;;;;;;;;5057506;28;20217;-66
2022/06/27 02:46:01;;;;;;;4.50;2.47;;;;;;;;;;5059314;28;20210;-65
2022/06/27 02:48:30;;;;;;;3.03;2.27;;;;;;;;;;5059033;28;20205;-66
2022/06/27 02:51:01;;;;;;;4.83;2.77;;;;;;;;;;5061575;28;20207;-66
2022/06/27 02:53:32;;;;;;;2.73;2.50;;;;;;;;;;5063029;28;20185;-66
2022/06/27 02:56:00;;;;;;;3.20;2.40;;;;;;;;;;5060660;28;20626;-66
2022/06/27 02:58:30;;;;;;;2.80;2.57;;;;;;;;;;5043694;28;20202;-65
2022/06/27 03:00:58;;;;;;;3.50;2.67;;;;;;;;;;5067731;28;20201;-65
2022/06/27 03:03:26;;;;;;;4.53;2.87;;;;;;;;;;5067530;28;20225;-65
2022/06/27 03:05:59;;;;;;;3.53;2.70;;;;;;;;;;5060766;28;20643;-66
2022/06/27 03:08:36;;;;;;;5.20;3.13;;;;;;;;;;5067106;28;20579;-66
2022/06/27 03:11:03;;;;;;;3.73;2.70;;;;;;;;;;5067725;28;20196;-66
2022/06/27 03:13:31;;;;;;;4.70;2.90;;;;;;;;;;5067499;28;20200;-65
2022/06/27 03:15:58;;;;;;;5.53;2.70;;;;;;;;;;5063415;28;20189;-66
2022/06/27 03:18:25;;;;;;;3.93;2.67;;;;;;;;;;5065760;28;20197;-66
2022/06/27 03:20:53;;;;;;;3.07;2.60;;;;;;;;;;5066955;28;20550;-66
2022/06/27 03:23:20;;;;;;;3.83;3.13;;;;;;;;;;5066763;28;20582;-66
2022/06/27 03:25:47;;;;;;;5.00;2.67;;;;;;;;;;5064494;28;20194;-65
2022/06/27 03:28:15;;;;;;;3.33;2.90;;;;;;;;;;5056137;28;20203;-65
2022/06/27 03:30:42;;;;;;;3.20;2.90;;;;;;;;;;5025684;28;1103725;-65
2022/06/27 03:33:09;;;;;;;3.40;2.90;;;;;;;;;;5059927;28;20251;-65
2022/06/27 03:35:37;;;;;;;3.30;2.47;;;;;;;;;;5067856;28;20198;-65
2022/06/27 03:38:04;;;;;;;3.57;2.63;;;;;;;;;;5067954;28;20211;-66
2022/06/27 03:40:32;;;;;;;4.17;2.67;;;;;;;;;;5063549;28;20221;-65
2022/06/27 03:42:59;;;;;;;3.30;2.57;;;;;;;;;;5068170;28;20240;-66
2022/06/27 03:45:26;;;;;;;3.07;2.70;;;;;;;;;;5063695;28;20212;-66
2022/06/27 03:47:57;;;;;;;5.20;2.70;;;;;;;;;;5067324;28;20517;-66
2022/06/27 03:50:25;;;;;;;3.43;2.80;;;;;;;;;;5064464;28;20201;-66
2022/06/27 03:52:54;;;;;;;3.30;2.70;;;;;;;;;;5064386;28;20221;-66
2022/06/27 03:55:22;;;;;;;2.90;2.40;;;;;;;;;;5061888;28;20276;-65
2022/06/27 03:57:54;;;;;;;6.67;2.67;;;;;;;;;;5065648;28;20221;-65
2022/06/27 04:00:22;;;;;;;3.23;2.30;;;;;;;;;;5067150;28;20188;-65
2022/06/27 04:02:50;;;;;;;2.90;2.60;;;;;;;;;;5065371;28;20186;-65
2022/06/27 04:05:17;;;;;;;3.37;2.80;;;;;;;;;;5066148;28;20194;-65
2022/06/27 04:07:45;;;;;;;5.03;2.90;;;;;;;;;;5064207;28;20234;-65
2022/06/27 04:10:13;;;;;;;4.47;3.10;;;;;;;;;;5065000;28;20209;-63
2022/06/27 04:12:41;;;;;;;4.03;2.87;;;;;;;;;;5065095;28;20212;-63
2022/06/27 04:15:09;;;;;;;3.03;2.60;;;;;;;;;;5066826;28;20218;-64
2022/06/27 04:17:37;;;;;;;5.10;2.83;;;;;;;;;;5064717;28;20190;-65
2022/06/27 04:20:05;;;;;;;2.73;2.53;;;;;;;;;;5068356;28;20202;-63
2022/06/27 04:22:33;;;;;;;3.13;2.80;;;;;;;;;;5060489;28;20216;-63
2022/06/27 04:25:01;;;;;;;2.97;2.63;;;;;;;;;;5063097;28;20210;-63
2022/06/27 04:27:30;;;;;;;5.27;3.13;;;;;;;;;;5064643;28;20201;-66
2022/06/27 04:29:57;;;;;;;3.70;2.97;;;;;;;;;;5069791;28;20238;-66
2022/06/27 04:32:25;;;;;;;2.90;2.60;;;;;;;;;;5065461;28;20524;-64
2022/06/27 04:34:52;;;;;;;3.17;2.83;;;;;;;;;;5065448;28;20197;-63
2022/06/27 04:37:20;;;;;;;3.03;2.77;;;;;;;;;;5061255;28;20818;-63
2022/06/27 04:39:47;;;;;;;3.33;2.97;;;;;;;;;;5066209;28;20638;-65
2022/06/27 04:42:15;;;;;;;4.63;2.77;;;;;;;;;;5066679;28;20201;-65
2022/06/27 04:44:43;;;;;;;5.03;3.03;;;;;;;;;;5058549;28;20217;-65
2022/06/27 04:47:13;;;;;;;3.13;2.83;;;;;;;;;;5064418;28;20208;-65
2022/06/27 04:49:42;;;;;;;4.37;3.03;;;;;;;;;;5065960;28;20193;-65
2022/06/27 04:52:12;;;;;;;3.23;2.77;;;;;;;;;;5065054;28;20243;-63
2022/06/27 04:54:39;;;;;;;5.33;3.07;;;;;;;;;;5060863;28;20194;-64
2022/06/27 04:57:09;;;;;;;4.60;3.37;;;;;;;;;;5062884;28;20193;-65
2022/06/27 04:59:40;;;;;;;4.07;3.17;;;;;;;;;;5066925;28;20213;-65
2022/06/27 05:02:12;;;;;;;4.70;3.10;;;;;;;;;;5066106;28;20550;-64
2022/06/27 05:04:45;;;;;;;3.17;2.93;;;;;;;;;;5061201;28;20225;-63
2022/06/27 05:07:16;;;;;;;3.63;3.33;;;;;;;;;;5065277;28;20190;-66
2022/06/27 05:09:52;;;;;;;3.43;2.57;;;;;;;;;;5045361;28;20206;-65
2022/06/27 05:12:24;;;;;;;4.17;2.90;;;;;;;;;;5064427;28;20678;-63
2022/06/27 05:14:52;;;;;;;6.40;2.97;;;;;;;;;;5061532;28;20201;-64
2022/06/27 05:17:19;;;;;;;3.37;2.80;;;;;;;;;;5049162;28;20692;-63
2022/06/27 05:19:49;;;;;;;4.73;2.80;;;;;;;;;;5069313;28;20194;-63
2022/06/27 05:22:18;;;;;;;4.27;3.07;;;;;;;;;;5063368;28;20228;-63
2022/06/27 05:24:51;;;;;;;5.90;3.20;;;;;;;;;;5062182;28;20236;-63
2022/06/27 05:27:23;;;;;;;6.80;3.70;;;;;;;;;;5043232;28;20671;-65
2022/06/27 05:29:57;;;;;;;4.60;3.53;;;;;;;;;;5068665;28;20298;-65
2022/06/27 05:32:28;;;;;;;4.63;3.37;;;;;;;;;;5064099;28;20187;-64
2022/06/27 05:34:56;;;;;;;4.10;3.60;;;;;;;;;;5060828;28;20208;-63
2022/06/27 05:37:27;;;;;;;5.60;3.53;;;;;;;;;;5058054;28;20229;-64
2022/06/27 05:39:58;;;;;;;7.43;3.17;;;;;;;;;;5067489;28;20200;-63
2022/06/27 05:42:29;;;;;;;11.00;5.47;;;;;;;;;;5059969;28;20767;-63
2022/06/27 05:44:58;;;;;;;70.07;23.00;;;;;;;;;;5043460;28;20740;-66
2022/06/27 05:47:31;;;;;;;45.17;17.77;;;;;;;;;;5062540;28;20201;-66
2022/06/27 05:50:00;;;;;;;39.23;14.37;;;;;;;;;;5065764;28;20604;-65
2022/06/27 05:52:34;;;;;;;40.47;12.60;;;;;;;;;;5045259;28;20186;-63
2022/06/27 05:55:21;;;;;;;29.40;10.97;;;;;;;;;;5065646;28;20404;-65
2022/06/27 05:57:54;;;;;;;21.47;9.80;;;;;;;;;;5047443;28;20212;-66
2022/06/27 06:00:21;;;;;;;24.03;8.90;;;;;;;;;;5068736;28;20202;-65
2022/06/27 06:02:49;;;;;;;17.90;8.50;;;;;;;;;;5066360;28;20197;-66
2022/06/27 06:05:17;;;;;;;16.43;8.00;;;;;;;;;;5068783;28;20224;-66
2022/06/27 06:07:45;;;;;;;14.13;6.60;;;;;;;;;;5068397;28;20186;-65
2022/06/27 06:10:15;;;;;;;19.13;7.40;;;;;;;;;;5046127;28;20214;-63
2022/06/27 06:12:46;;;;;;;24.27;6.57;;;;;;;;;;5062386;28;20198;-63
2022/06/27 06:15:18;;;;;;;15.40;6.40;;;;;;;;;;5063116;28;20803;-63
2022/06/27 06:17:47;;;;;;;12.90;5.80;;;;;;;;;;5065849;28;20229;-63
2022/06/27 06:20:20;;;;;;;9.57;5.70;;;;;;;;;;5069092;28;20209;-65
2022/06/27 06:22:50;;;;;;;9.37;5.40;;;;;;;;;;5053844;28;20228;-70
2022/06/27 06:25:23;;;;;;;21.73;7.83;;;;;;;;;;5055340;28;20218;-68
2022/06/27 06:27:56;;;;;;;15.33;9.00;;;;;;;;;;5062462;28;20206;-68
2022/06/27 06:30:29;;;;;;;16.20;8.20;;;;;;;;;;5061554;28;20275;-68
2022/06/27 06:33:02;;;;;;;14.20;7.80;;;;;;;;;;5064158;28;20209;-68
2022/06/27 06:35:33;;;;;;;10.87;7.40;;;;;;;;;;5069390;28;20198;-66
2022/06/27 06:38:05;;;;;;;10.27;6.77;;;;;;;;;;5067135;28;20255;-66
2022/06/27 06:40:37;;;;;;;9.80;6.57;;;;;;;;;;5065332;28;20190;-67
2022/06/27 06:43:07;;;;;;;6.80;6.10;;;;;;;;;;5068827;28;20599;-66
2022/06/27 06:45:36;;;;;;;7.07;5.83;;;;;;;;;;5062085;28;20236;-70
2022/06/27 06:48:08;;;;;;;6.07;5.43;;;;;;;;;;5068223;28;20744;-66
2022/06/27 06:50:38;;;;;;;7.93;4.87;;;;;;;;;;5065632;28;20288;-69
2022/06/27 06:53:08;;;;;;;6.97;4.97;;;;;;;;;;5060857;28;20313;-69
2022/06/27 06:55:36;;;;;;;6.13;5.23;;;;;;;;;;5061665;28;20209;-67
2022/06/27 06:58:03;;;;;;;10.10;5.20;;;;;;;;;;5063756;28;20667;-66
2022/06/27 07:00:30;;;;;;;6.40;4.73;;;;;;;;;;5066894;28;20205;-66
2022/06/27 07:02:58;;;;;;;6.10;5.00;;;;;;;;;;5066784;28;20220;-65
2022/06/27 07:05:27;;;;;;;5.47;4.97;;;;;;;;;;5067235;28;20249;-68
2022/06/27 07:07:55;;;;;;;6.25;5.28;;;;;;;;;;5046634;28;20421;-66
2022/06/27 07:10:23;;;;;;;5.20;4.70;;;;;;;;;;5067339;28;20306;-65
2022/06/27 07:12:52;;;;;;;5.97;4.37;;;;;;;;;;5077611;28;20208;-69
2022/06/27 07:15:24;;;;;;;5.63;3.93;;;;;;;;;;5085272;28;20228;-70
2022/06/27 07:17:56;;;;;;;4.10;3.60;;;;;;;;;;5068530;28;20198;-71
2022/06/27 07:20:24;;;;;;;6.70;3.53;;;;;;;;;;5081866;28;20194;-69
2022/06/27 07:22:54;;;;;;;5.80;3.53;;;;;;;;;;5063126;28;20228;-70
2022/06/27 07:25:25;;;;;;;4.53;3.53;;;;;;;;;;5050275;28;20523;-68
2022/06/27 07:27:53;;;;;;;5.80;3.87;;;;;;;;;;5058102;28;20202;-70
2022/06/27 07:30:20;;;;;;;4.43;4.00;;;;;;;;;;5062956;28;20229;-70
2022/06/27 07:32:48;;;;;;;6.63;3.67;;;;;;;;;;5063399;28;20225;-72
2022/06/27 07:35:26;;;;;;;5.73;2.80;;;;;;;;;;5062672;28;20197;-70
2022/06/27 07:37:53;;;;;;;9.10;3.43;;;;;;;;;;5061397;28;20519;-71
2022/06/27 07:40:22;;;;;;;3.83;3.30;;;;;;;;;;5067239;28;20225;-71
2022/06/27 07:42:51;;;;;;;4.73;3.20;;;;;;;;;;5064415;28;20268;-69
2022/06/27 07:45:21;;;;;;;3.87;2.80;;;;;;;;;;5062793;28;20229;-68
2022/06/27 07:47:49;;;;;;;5.23;2.70;;;;;;;;;;5065856;28;20197;-69
2022/06/27 07:50:39;;;;;;;3.00;2.70;;;;;;;;;;5067191;28;20208;-69
2022/06/27 07:53:12;;;;;;;4.23;3.40;;;;;;;;;;5066108;28;20205;-69
2022/06/27 07:55:40;;;;;;;3.93;2.93;;;;;;;;;;5032442;28;20670;-68
2022/06/27 07:58:09;;;;;;;2.90;2.57;;;;;;;;;;5059242;28;20560;-68
2022/06/27 08:00:37;;;;;;;3.87;3.03;;;;;;;;;;5060839;28;20194;-69
2022/06/27 08:03:36;;;;;;;3.23;2.93;;;;;;;;;;5065969;28;20202;-68
2022/06/27 08:05:53;;;;;;;5.63;3.60;;;;;;;;;;5060549;28;20214;-69
2022/06/27 08:08:23;;;;;;;4.13;3.50;;;;;;;;;;5066090;28;20623;-71
2022/06/27 08:10:50;;;;;;;4.27;3.23;;;;;;;;;;5035566;28;20552;-69
2022/06/27 08:13:18;;;;;;;3.97;3.50;;;;;;;;;;5043206;28;20710;-70
2022/06/27 08:15:47;;;;;;;6.20;3.87;;;;;;;;;;5066470;28;20241;-70
2022/06/27 08:18:15;;;;;;;4.90;3.50;;;;;;;;;;5052866;28;20231;-70
2022/06/27 08:20:45;;;;;;;3.93;3.60;;;;;;;;;;5060625;28;20213;-70
2022/06/27 08:23:17;;;;;;;4.20;3.70;;;;;;;;;;5061180;28;20190;-69
2022/06/27 08:25:47;;;;;;;5.03;3.40;;;;;;;;;;5066334;28;20531;-70
2022/06/27 08:28:16;;;;;;;3.70;3.37;;;;;;;;;;5060881;28;20205;-71
2022/06/27 08:30:43;;;;;;;3.80;3.40;;;;;;;;;;5059984;28;20439;-70
2022/06/27 08:33:12;;;;;;;4.77;3.63;;;;;;;;;;5063002;28;20534;-69
2022/06/27 08:35:49;;;;;;;5.00;3.50;;;;;;;;;;5061674;28;20617;-70
2022/06/27 08:38:18;;;;;;;5.63;3.40;;;;;;;;;;5065613;28;20212;-68
2022/06/27 08:40:48;;;;;;;4.43;3.10;;;;;;;;;;5041679;28;20186;-66
2022/06/27 08:43:20;;;;;;;6.17;3.73;;;;;;;;;;5065754;28;20189;-67
2022/06/27 08:45:52;;;;;;;5.20;3.90;;;;;;;;;;5048544;28;20801;-68
2022/06/27 08:48:28;;;;;;;5.10;3.30;;;;;;;;;;5050790;28;20292;-67
2022/06/27 08:50:59;;;;;;;4.10;3.20;;;;;;;;;;5066683;28;20189;-67
2022/06/27 08:53:32;;;;;;;4.10;3.40;;;;;;;;;;5067178;28;20305;-71
2022/06/27 08:56:01;;;;;;;4.80;4.30;;;;;;;;;;5059760;28;20205;-68
2022/06/27 08:58:30;;;;;;;4.87;3.60;;;;;;;;;;5061541;28;20190;-68
2022/06/27 09:00:59;;;;;;;4.00;3.60;;;;;;;;;;5066093;28;20202;-67
2022/06/27 09:03:28;;;;;;;4.93;3.70;;;;;;;;;;5066894;28;20193;-69
2022/06/27 09:06:02;;;;;;;4.47;3.40;;;;;;;;;;5059073;28;20866;-68
2022/06/27 09:08:36;;;;;;;7.50;3.57;;;;;;;;;;5059143;28;20201;-67
2022/06/27 09:11:29;;;;;;;4.33;3.50;;;;;;;;;;5063244;28;20221;-67
2022/06/27 09:13:56;;;;;;;4.73;3.40;;;;;;;;;;5061837;28;20276;-66
2022/06/27 09:16:25;;;;;;;4.60;3.77;;;;;;;;;;5065610;28;20206;-66
2022/06/27 09:19:01;;;;;;;5.13;4.30;;;;;;;;;;5068913;28;20205;-66
2022/06/27 09:21:33;;;;;;;3.83;3.43;;;;;;;;;;5063288;28;20219;-67
2022/06/27 09:24:07;;;;;;;4.50;3.60;;;;;;;;;;5061564;28;20213;-66
2022/06/27 09:26:40;;;;;;;5.33;4.03;;;;;;;;;;5061438;28;20198;-66
2022/06/27 09:29:14;;;;;;;4.67;3.13;;;;;;;;;;5077166;28;20205;-68
2022/06/27 09:31:50;;;;;;;4.70;3.30;;;;;;;;;;5071478;28;20843;-66
2022/06/27 09:34:23;;;;;;;4.93;3.23;;;;;;;;;;5051230;28;20205;-67
2022/06/27 09:36:52;;;;;;;4.03;2.93;;;;;;;;;;5065440;28;20209;-67
2022/06/27 09:39:29;;;;;;;4.03;2.97;;;;;;;;;;5069570;28;20347;-64
2022/06/27 09:42:03;;;;;;;4.50;3.30;;;;;;;;;;5055418;28;20216;-66
2022/06/27 09:44:39;;;;;;;3.00;2.70;;;;;;;;;;5067665;28;20585;-68
2022/06/27 09:47:26;;;;;;;3.10;2.60;;;;;;;;;;5058583;28;22030;-69
2022/06/27 09:49:59;;;;;;;3.90;2.80;;;;;;;;;;5048622;28;20240;-65
2022/06/27 09:52:28;;;;;;;3.67;2.83;;;;;;;;;;5045255;28;20197;-66
2022/06/27 09:54:55;;;;;;;3.87;2.80;;;;;;;;;;5062854;28;20202;-65
2022/06/27 09:57:24;;;;;;;3.53;2.67;;;;;;;;;;5069104;28;20212;-66
2022/06/27 09:59:53;;;;;;;2.90;2.40;;;;;;;;;;5063611;28;20296;-68
2022/06/27 10:02:22;;;;;;;2.77;2.40;;;;;;;;;;5068818;28;20290;-66
2022/06/27 10:04:56;;;;;;;5.07;2.60;;;;;;;;;;5069370;28;20221;-69
2022/06/27 10:07:25;;;;;;;4.07;2.93;;;;;;;;;;5065569;28;20746;-68
2022/06/27 10:09:55;;;;;;;2.90;2.60;;;;;;;;;;5047767;28;20580;-68
2022/06/27 10:12:37;;;;;;;2.77;2.53;;;;;;;;;;5047518;28;20288;-68
2022/06/27 10:15:12;;;;;;;4.10;2.77;;;;;;;;;;5067863;28;20193;-69
2022/06/27 10:17:52;;;;;;;2.97;2.43;;;;;;;;;;5066635;28;20197;-70
2022/06/27 10:20:35;;;;;;;4.63;2.70;;;;;;;;;;5067043;28;20201;-68
2022/06/27 10:23:10;;;;;;;2.80;2.53;;;;;;;;;;5050869;28;20220;-68
2022/06/27 10:25:42;;;;;;;3.03;2.53;;;;;;;;;;5067200;28;20303;-68
2022/06/27 10:28:14;;;;;;;3.30;2.17;;;;;;;;;;5066596;28;20202;-68
2022/06/27 10:31:01;;;;;;;2.73;2.40;;;;;;;;;;5065445;28;20229;-68
2022/06/27 10:33:31;;;;;;;4.80;2.47;;;;;;;;;;5044594;28;20627;-68
2022/06/27 10:36:02;;;;;;;3.30;2.30;;;;;;;;;;5048587;28;20217;-67
2022/06/27 10:38:40;;;;;;;6.07;2.80;;;;;;;;;;5064012;28;20554;-67
2022/06/27 10:41:08;;;;;;;4.13;3.00;;;;;;;;;;5068466;28;20206;-68
2022/06/27 10:43:37;;;;;;;2.60;2.37;;;;;;;;;;5065848;28;20209;-68
2022/06/27 10:46:13;;;;;;;4.13;3.00;;;;;;;;;;5062491;28;20236;-67
2022/06/27 10:48:50;;;;;;;3.10;2.70;;;;;;;;;;5062408;28;20327;-67
2022/06/27 10:51:33;;;;;;;2.67;2.40;;;;;;;;;;5048785;28;20188;-68
2022/06/27 10:54:08;;;;;;;3.00;2.70;;;;;;;;;;5047429;28;20215;-68
2022/06/27 10:56:46;;;;;;;3.43;2.77;;;;;;;;;;5028088;28;20208;-67
2022/06/27 10:59:17;;;;;;;3.77;2.80;;;;;;;;;;5052489;28;20226;-68
2022/06/27 11:01:50;;;;;;;4.67;2.73;;;;;;;;;;5062126;28;20198;-68
2022/06/27 11:04:25;;;;;;;6.47;3.60;;;;;;;;;;5064057;28;20619;-70
2022/06/27 11:06:56;;;;;;;3.30;3.00;;;;;;;;;;5066669;28;20236;-70
2022/06/27 11:09:35;;;;;;;3.60;3.20;;;;;;;;;;5043551;28;20201;-70
2022/06/27 11:12:03;;;;;;;3.37;2.73;;;;;;;;;;5064657;28;20670;-70
2022/06/27 11:14:45;;;;;;;3.70;2.90;;;;;;;;;;5064582;28;20248;-70
2022/06/27 11:17:31;;;;;;;3.50;2.70;;;;;;;;;;5068176;28;20635;-72
2022/06/27 11:20:14;;;;;;;3.07;2.63;;;;;;;;;;5067469;28;20194;-74
2022/06/27 11:23:06;;;;;;;4.40;2.60;;;;;;;;;;5060593;28;20591;-72
2022/06/27 11:25:41;;;;;;;3.90;3.00;;;;;;;;;;5061828;28;20217;-71
2022/06/27 11:33:46;;;;;;;3.40;2.60;;;;;;;;;;5065054;28;20194;-69
2022/06/27 11:36:18;;;;;;;4.63;2.70;;;;;;;;;;5063170;28;20210;-70
2022/06/27 11:38:49;;;;;;;3.83;2.77;;;;;;;;;;5045904;28;20205;-71
2022/06/27 11:41:30;;;;;;;3.87;3.10;;;;;;;;;;5065324;28;20193;-71
2022/06/27 11:44:10;;;;;;;3.33;2.43;;;;;;;;;;5066199;28;20284;-69
2022/06/27 11:46:52;;;;;;;5.47;2.50;;;;;;;;;;5060865;28;20248;-69
2022/06/27 11:49:29;;;;;;;3.17;2.60;;;;;;;;;;5048970;28;20194;-69
2022/06/27 11:52:02;;;;;;;5.80;2.83;;;;;;;;;;5064292;28;20199;-69
2022/06/27 11:54:38;;;;;;;4.23;2.50;;;;;;;;;;5060933;28;20202;-68
2022/06/27 11:57:32;;;;;;;4.50;2.73;;;;;;;;;;5066481;28;20261;-67
2022/06/27 12:00:07;;;;;;;3.83;2.57;;;;;;;;;;5063700;28;20220;-68
2022/06/27 12:02:44;;;;;;;3.47;2.43;;;;;;;;;;5064307;28;20211;-69
2022/06/27 12:05:17;;;;;;;3.40;2.90;;;;;;;;;;5046879;28;20217;-68
2022/06/27 12:08:01;;;;;;;4.30;2.60;;;;;;;;;;5061582;28;20189;-69
2022/06/27 12:10:41;;;;;;;4.57;2.47;;;;;;;;;;5039937;28;20553;-71
2022/06/27 12:13:11;;;;;;;2.77;2.27;;;;;;;;;;5065373;28;20199;-68
2022/06/27 12:15:44;;;;;;;5.33;3.13;;;;;;;;;;5066172;28;20202;-69
2022/06/27 12:18:16;;;;;;;3.70;3.00;;;;;;;;;;5066547;28;20209;-68
2022/06/27 12:20:48;;;;;;;3.97;2.93;;;;;;;;;;5064278;28;20205;-65
2022/06/27 12:23:18;;;;;;;3.03;2.60;;;;;;;;;;5059362;28;20278;-65
2022/06/27 12:25:48;;;;;;;4.13;2.60;;;;;;;;;;5065787;28;20453;-68
2022/06/27 12:28:17;;;;;;;8.27;2.70;;;;;;;;;;5039771;28;20202;-69
2022/06/27 12:30:47;;;;;;;5.10;2.80;;;;;;;;;;5049943;28;20429;-68
2022/06/27 12:33:21;;;;;;;2.87;2.40;;;;;;;;;;5062775;28;20574;-68
2022/06/27 12:35:48;;;;;;;3.87;2.30;;;;;;;;;;5040529;28;20216;-71
2022/06/27 12:38:21;;;;;;;5.30;2.27;;;;;;;;;;5060213;28;20740;-69
2022/06/27 12:40:49;;;;;;;3.20;2.33;;;;;;;;;;5061168;28;20217;-69
2022/06/27 12:43:18;;;;;;;2.60;2.10;;;;;;;;;;5064018;28;20206;-69
2022/06/27 12:45:52;;;;;;;2.93;2.17;;;;;;;;;;5045452;28;20224;-72
2022/06/27 12:48:20;;;;;;;2.37;1.80;;;;;;;;;;5061036;28;20671;-73
2022/06/27 12:50:47;;;;;;;2.90;2.17;;;;;;;;;;5058163;28;20201;-72
2022/06/27 12:53:14;;;;;;;2.43;2.20;;;;;;;;;;5063859;28;20190;-71
2022/06/27 12:55:42;;;;;;;6.37;2.43;;;;;;;;;;5064487;28;20206;-71
2022/06/27 12:58:11;;;;;;;3.83;2.13;;;;;;;;;;5064958;28;20201;-70
2022/06/27 13:00:38;;;;;;;5.33;2.40;;;;;;;;;;5060197;28;20229;-68
2022/06/27 13:03:11;;;;;;;3.13;2.37;;;;;;;;;;5044635;28;20193;-69
2022/06/27 13:05:39;;;;;;;4.83;2.60;;;;;;;;;;5066655;28;20217;-70
2022/06/27 13:08:09;;;;;;;2.50;2.17;;;;;;;;;;5068281;28;20194;-68
2022/06/27 13:10:42;;;;;;;3.33;2.20;;;;;;;;;;5062908;28;20239;-68
2022/06/27 13:13:10;;;;;;;2.37;2.00;;;;;;;;;;5069290;28;20190;-68
2022/06/27 13:15:40;;;;;;;3.50;2.53;;;;;;;;;;5066094;28;20821;-67
2022/06/27 13:18:15;;;;;;;3.67;2.80;;;;;;;;;;5064106;28;20679;-71
2022/06/27 13:20:49;;;;;;;3.23;2.30;;;;;;;;;;5062601;28;20197;-72
2022/06/27 13:23:20;;;;;;;4.20;3.23;;;;;;;;;;5064359;28;20215;-73
2022/06/27 13:25:49;;;;;;;7.17;3.07;;;;;;;;;;5066560;28;20296;-68
2022/06/27 13:28:22;;;;;;;6.10;2.93;;;;;;;;;;5048196;28;20570;-67
2022/06/27 13:30:49;;;;;;;3.13;2.07;;;;;;;;;;5062034;28;20936;-68
2022/06/27 13:33:16;;;;;;;5.10;2.10;;;;;;;;;;5061956;28;20186;-68
2022/06/27 13:35:44;;;;;;;3.10;2.07;;;;;;;;;;5060784;28;20798;-66
2022/06/27 13:38:18;;;;;;;3.60;1.90;;;;;;;;;;5065773;28;20197;-66
2022/06/27 13:40:48;;;;;;;3.93;1.93;;;;;;;;;;5047977;28;20851;-68
2022/06/27 13:43:20;;;;;;;2.73;1.50;;;;;;;;;;5064391;28;21405;-68
2022/06/27 13:45:49;;;;;;;2.57;1.40;;;;;;;;;;5068243;28;20260;-68
2022/06/27 13:48:20;;;;;;;3.47;1.77;;;;;;;;;;5044469;28;20202;-68
2022/06/27 13:50:49;;;;;;;2.77;1.70;;;;;;;;;;5063850;28;20679;-67
2022/06/27 13:53:18;;;;;;;2.73;1.70;;;;;;;;;;5067664;28;20248;-66
2022/06/27 13:55:48;;;;;;;3.37;1.70;;;;;;;;;;5067087;28;20646;-66
2022/06/27 13:58:18;;;;;;;2.73;1.90;;;;;;;;;;5067259;28;20194;-67
2022/06/27 14:00:50;;;;;;;3.07;1.57;;;;;;;;;;5058386;28;20210;-67
2022/06/27 14:03:19;;;;;;;3.53;1.70;;;;;;;;;;5067382;28;20237;-67
2022/06/27 14:05:48;;;;;;;2.77;1.60;;;;;;;;;;5068337;28;20936;-66
2022/06/27 14:08:18;;;;;;;4.03;1.80;;;;;;;;;;5064718;28;20204;-67
2022/06/27 14:10:57;;;;;;;3.40;1.60;;;;;;;;;;5057103;28;20577;-70
2022/06/27 14:13:28;;;;;;;2.77;1.50;;;;;;;;;;5064656;28;20190;-70
2022/06/27 14:15:58;;;;;;;4.17;1.67;;;;;;;;;;5067874;28;20201;-68
2022/06/27 14:18:30;;;;;;;2.83;1.50;;;;;;;;;;5065309;28;20205;-67
2022/06/27 14:21:03;;;;;;;2.30;1.87;;;;;;;;;;5049681;28;20202;-71
2022/06/27 14:23:32;;;;;;;2.57;1.63;;;;;;;;;;5062048;28;20267;-70
2022/06/27 14:26:00;;;;;;;1.57;1.47;;;;;;;;;;5067031;28;20225;-71
2022/06/27 14:28:33;;;;;;;4.00;1.87;;;;;;;;;;5064563;28;20196;-71
2022/06/27 14:31:02;;;;;;;2.07;1.60;;;;;;;;;;5050944;28;20691;-72
2022/06/27 14:33:35;;;;;;;2.97;1.80;;;;;;;;;;5066625;28;20247;-71
2022/06/27 14:36:09;;;;;;;2.10;1.53;;;;;;;;;;5063689;28;20263;-69
2022/06/27 14:38:39;;;;;;;1.90;1.70;;;;;;;;;;5057811;28;20274;-72
2022/06/27 14:41:20;;;;;;;1.80;1.50;;;;;;;;;;5063048;28;20233;-70
2022/06/27 14:43:51;;;;;;;1.63;1.53;;;;;;;;;;5064316;28;20201;-68
2022/06/27 14:46:19;;;;;;;1.67;1.50;;;;;;;;;;5065864;28;20221;-70
2022/06/27 14:48:47;;;;;;;4.83;1.43;;;;;;;;;;5041604;28;20831;-69
2022/06/27 14:51:16;;;;;;;2.43;1.43;;;;;;;;;;5064196;28;20206;-70
2022/06/27 14:53:48;;;;;;;2.73;1.53;;;;;;;;;;5066622;28;20512;-70
2022/06/27 14:56:25;;;;;;;3.10;1.60;;;;;;;;;;5065844;28;20202;-70
2022/06/27 14:58:52;;;;;;;3.23;1.50;;;;;;;;;;5062290;28;20217;-69
2022/06/27 15:01:21;;;;;;;3.50;1.53;;;;;;;;;;5060903;28;20210;-68
2022/06/27 15:03:49;;;;;;;1.70;1.40;;;;;;;;;;5068104;28;20210;-69
2022/06/27 15:06:18;;;;;;;4.43;1.60;;;;;;;;;;5064617;28;20229;-71
2022/06/27 15:08:50;;;;;;;2.30;1.40;;;;;;;;;;5065895;28;20259;-68